Time;durP1;ratioP1;P1;durP2;ratioP2;P2;SDS_P1;SDS_P2;PMS_P1;PMS_P2;Temp;Humidity;BMP_temperature;BMP_pressure;BME280_temperature;BME280_humidity;BME280_pressure;Samples;Min_cycle;Max_cycle;Signal;HPM_P1;HPM_P2
2024/03/28 00:00:47;;;;;;;;;;;7.70;1.00;;;;;;5043113;28;19920;-83
2024/03/28 00:03:13;;;;;;;;;;;7.70;1.00;;;;;;5051059;28;19926;-83
2024/03/28 00:05:38;;;;;;;;;;;7.70;1.00;;;;;;5050635;28;19916;-81
2024/03/28 00:08:04;;;;;;;;;;;7.70;1.00;;;;;;5049402;28;19913;-83
2024/03/28 00:10:30;;;;;;;;;;;7.80;1.00;;;;;;5045561;28;19909;-83
2024/03/28 00:12:55;;;;;;;;;;;7.70;1.00;;;;;;5051369;28;19923;-83
2024/03/28 00:15:21;;;;;;;;;;;7.70;1.00;;;;;;5052791;28;19913;-83
2024/03/28 00:17:47;;;;;;;;;;;7.70;1.00;;;;;;5047581;28;19913;-84
2024/03/28 00:20:12;;;;;;;;;;;7.60;1.00;;;;;;5051343;28;19949;-84
2024/03/28 00:22:38;;;;;;;;;;;7.60;1.00;;;;;;5049680;28;19913;-83
2024/03/28 00:25:03;;;;;;;;;;;7.50;1.00;;;;;;5048460;28;19920;-82
2024/03/28 00:27:29;;;;;;;;;;;7.50;1.00;;;;;;5046152;28;19925;-81
2024/03/28 00:29:54;;;;;;;;;;;7.50;1.00;;;;;;5038122;28;19909;-82
2024/03/28 00:32:20;;;;;;;;;;;7.40;1.00;;;;;;5042683;28;19948;-83
2024/03/28 00:34:45;;;;;;;;;;;7.40;1.00;;;;;;5050270;28;19949;-84
2024/03/28 00:37:11;;;;;;;;;;;7.40;1.00;;;;;;5050404;28;19909;-83
2024/03/28 00:39:38;;;;;;;;;;;7.40;1.00;;;;;;5047222;28;19924;-82
2024/03/28 00:42:03;;;;;;;;;;;7.40;1.00;;;;;;5035916;28;19913;-81
2024/03/28 00:44:29;;;;;;;;;;;7.30;1.00;;;;;;5034070;28;20486;-81
2024/03/28 00:46:54;;;;;;;;;;;7.30;1.00;;;;;;5037106;28;19913;-82
2024/03/28 00:49:20;;;;;;;;;;;7.30;1.00;;;;;;5034898;28;19913;-82
2024/03/28 00:51:47;;;;;;;;;;;7.30;1.00;;;;;;5037026;28;20399;-82
2024/03/28 00:54:12;;;;;;;;;;;7.30;1.00;;;;;;5036205;28;19913;-82
2024/03/28 00:56:38;;;;;;;;;;;7.30;1.00;;;;;;5038246;28;19932;-83
2024/03/28 00:59:03;;;;;;;;;;;7.30;1.00;;;;;;5047171;28;19920;-83
2024/03/28 01:01:29;;;;;;;;;;;7.30;1.00;;;;;;5058156;22;20024;-84
2024/03/28 01:03:54;;;;;;;;;;;7.20;1.00;;;;;;5053210;28;20367;-85
2024/03/28 01:06:19;;;;;;;;;;;7.20;1.00;;;;;;5039357;28;19944;-82
2024/03/28 01:08:45;;;;;;;;;;;7.20;1.00;;;;;;5039122;28;19936;-85
2024/03/28 01:11:10;;;;;;;;;;;7.20;1.00;;;;;;5038357;28;19917;-84
2024/03/28 01:13:37;;;;;;;;;;;7.20;1.00;;;;;;5033475;28;19925;-86
2024/03/28 01:16:03;;;;;;;;;;;7.20;1.00;;;;;;5035497;28;20012;-83
2024/03/28 01:18:28;;;;;;;;;;;7.10;1.00;;;;;;5035359;28;19945;-84
2024/03/28 01:20:54;;;;;;;;;;;7.10;1.00;;;;;;5033579;28;19916;-83
2024/03/28 01:23:19;;;;;;;;;;;7.10;1.00;;;;;;5031638;28;19920;-83
2024/03/28 01:25:44;;;;;;;;;;;7.10;1.00;;;;;;5033884;28;20334;-84
2024/03/28 01:28:10;;;;;;;;;;;7.00;1.00;;;;;;5034907;28;19909;-85
2024/03/28 01:30:35;;;;;;;;;;;7.00;1.00;;;;;;5049879;28;19939;-83
2024/03/28 01:33:01;;;;;;;;;;;7.00;1.00;;;;;;5034195;28;20374;-83
2024/03/28 01:35:26;;;;;;;;;;;7.00;1.00;;;;;;5034868;28;19913;-83
2024/03/28 01:37:52;;;;;;;;;;;6.90;1.00;;;;;;5035350;28;19909;-83
2024/03/28 01:40:17;;;;;;;;;;;6.90;1.00;;;;;;5037077;28;19936;-84
2024/03/28 01:42:42;;;;;;;;;;;6.90;1.00;;;;;;5038270;28;20374;-84
2024/03/28 01:45:08;;;;;;;;;;;6.90;1.00;;;;;;5053110;28;19920;-84
2024/03/28 01:47:34;;;;;;;;;;;6.90;1.00;;;;;;5036506;28;20125;-82
2024/03/28 01:49:59;;;;;;;;;;;6.90;1.00;;;;;;5033908;28;19948;-83
2024/03/28 01:52:25;;;;;;;;;;;6.90;1.00;;;;;;5033975;28;20027;-83
2024/03/28 01:54:50;;;;;;;;;;;6.90;1.00;;;;;;5034038;28;19951;-83
2024/03/28 01:57:16;;;;;;;;;;;6.90;1.00;;;;;;5034546;28;19909;-84
2024/03/28 01:59:42;;;;;;;;;;;6.90;1.00;;;;;;5034832;28;20032;-83
2024/03/28 02:02:08;;;;;;;;;;;6.90;1.00;;;;;;5031095;28;19945;-84
2024/03/28 02:04:36;;;;;;;;;;;6.90;1.00;;;;;;5033905;28;19920;-81
2024/03/28 02:07:02;;;;;;;;;;;6.90;1.00;;;;;;5033510;28;20222;-84
2024/03/28 02:09:27;;;;;;;;;;;6.90;1.00;;;;;;5033226;28;19956;-83
2024/03/28 02:11:53;;;;;;;;;;;6.90;1.00;;;;;;5031190;28;20470;-83
2024/03/28 02:14:19;;;;;;;;;;;6.90;1.00;;;;;;5031254;28;19917;-84
2024/03/28 02:16:44;;;;;;;;;;;6.90;1.00;;;;;;5034906;28;19949;-85
2024/03/28 02:19:10;;;;;;;;;;;6.80;1.00;;;;;;5035175;28;20425;-83
2024/03/28 02:21:35;;;;;;;;;;;6.80;1.00;;;;;;5031820;28;19974;-85
2024/03/28 02:24:01;;;;;;;;;;;6.80;1.00;;;;;;5034322;28;19943;-84
2024/03/28 02:26:27;;;;;;;;;;;6.80;1.00;;;;;;5034930;28;19913;-83
2024/03/28 02:28:52;;;;;;;;;;;6.70;1.00;;;;;;5034259;28;20438;-81
2024/03/28 02:31:18;;;;;;;;;;;6.70;1.00;;;;;;5033183;28;19924;-84
2024/03/28 02:33:44;;;;;;;;;;;6.70;1.00;;;;;;5037560;28;19917;-84
2024/03/28 02:36:09;;;;;;;;;;;6.70;1.00;;;;;;5038853;28;19913;-84
2024/03/28 02:38:35;;;;;;;;;;;6.70;1.00;;;;;;5035327;28;19913;-84
2024/03/28 02:41:00;;;;;;;;;;;6.60;1.00;;;;;;5037000;28;19920;-84
2024/03/28 02:43:26;;;;;;;;;;;6.60;1.00;;;;;;5037596;28;19943;-84
2024/03/28 02:45:51;;;;;;;;;;;6.60;1.00;;;;;;5037637;28;19935;-82
2024/03/28 02:48:17;;;;;;;;;;;6.50;1.00;;;;;;5036809;28;19971;-81
2024/03/28 02:50:43;;;;;;;;;;;6.50;1.00;;;;;;5033275;28;20363;-85
2024/03/28 02:53:08;;;;;;;;;;;6.50;1.00;;;;;;5038183;28;19936;-84
2024/03/28 02:55:34;;;;;;;;;;;6.40;1.00;;;;;;5037448;28;20007;-83
2024/03/28 02:58:00;;;;;;;;;;;6.40;1.00;;;;;;5043489;28;19913;-83
2024/03/28 03:00:25;;;;;;;;;;;6.40;1.00;;;;;;5037026;28;19967;-84
2024/03/28 03:02:51;;;;;;;;;;;6.40;1.00;;;;;;5036661;28;19940;-82
2024/03/28 03:05:16;;;;;;;;;;;6.30;1.00;;;;;;5037529;28;20279;-84
2024/03/28 03:07:42;;;;;;;;;;;6.30;1.00;;;;;;5037880;28;19915;-84
2024/03/28 03:10:07;;;;;;;;;;;6.30;1.00;;;;;;5036164;28;19913;-83
2024/03/28 03:12:33;;;;;;;;;;;6.20;1.00;;;;;;5036819;28;19995;-84
2024/03/28 03:14:58;;;;;;;;;;;6.20;1.00;;;;;;5037265;28;19921;-81
2024/03/28 03:17:25;;;;;;;;;;;6.20;1.00;;;;;;5035156;28;19964;-83
2024/03/28 03:19:53;;;;;;;;;;;6.20;1.00;;;;;;5028367;28;19913;-82
2024/03/28 03:22:19;;;;;;;;;;;6.20;1.00;;;;;;5049911;28;19909;-82
2024/03/28 03:24:44;;;;;;;;;;;6.10;1.00;;;;;;5036031;28;20055;-83
2024/03/28 03:27:16;;;;;;;;;;;6.10;1.00;;;;;;5033621;28;19910;-84
2024/03/28 03:35:13;;;;;;;;;;;6.20;1.00;;;;;;5038313;28;19975;-84
2024/03/28 03:37:38;;;;;;;;;;;6.20;1.00;;;;;;5036827;28;19925;-82
2024/03/28 03:40:09;;;;;;;;;;;6.20;1.00;;;;;;5037082;28;20365;-85
2024/03/28 03:42:35;;;;;;;;;;;6.30;1.00;;;;;;5036657;28;19948;-84
2024/03/28 03:45:01;;;;;;;;;;;6.30;1.00;;;;;;5028221;28;19913;-84
2024/03/28 03:47:26;;;;;;;;;;;6.40;1.00;;;;;;5042590;28;19917;-85
2024/03/28 03:49:52;;;;;;;;;;;6.40;1.00;;;;;;5040059;28;19909;-85
2024/03/28 03:52:18;;;;;;;;;;;6.40;1.00;;;;;;5036962;28;19917;-83
2024/03/28 03:54:44;;;;;;;;;;;6.40;1.00;;;;;;5035251;28;19909;-83
2024/03/28 03:57:10;;;;;;;;;;;6.50;1.00;;;;;;5036707;28;20390;-83
2024/03/28 03:59:36;;;;;;;;;;;6.50;1.00;;;;;;5037032;28;19916;-83
2024/03/28 04:02:01;;;;;;;;;;;6.50;1.00;;;;;;5037933;28;20234;-82
2024/03/28 04:04:27;;;;;;;;;;;6.50;1.00;;;;;;5037729;28;19914;-84
2024/03/28 04:06:52;;;;;;;;;;;6.50;1.00;;;;;;5051978;28;20339;-84
2024/03/28 04:09:18;;;;;;;;;;;6.50;1.00;;;;;;5038074;28;19921;-83
2024/03/28 04:11:46;;;;;;;;;;;6.50;1.00;;;;;;5037405;28;19956;-84
2024/03/28 04:14:11;;;;;;;;;;;6.40;1.00;;;;;;5034994;28;19913;-84
2024/03/28 04:16:37;;;;;;;;;;;6.40;1.00;;;;;;5037773;28;19937;-84
2024/03/28 04:19:02;;;;;;;;;;;6.40;1.00;;;;;;5036901;28;19961;-84
2024/03/28 04:21:34;;;;;;;;;;;6.40;1.00;;;;;;5038234;28;19920;-83
2024/03/28 04:23:59;;;;;;;;;;;6.40;1.00;;;;;;5038345;28;20375;-84
2024/03/28 04:26:26;;;;;;;;;;;6.30;1.00;;;;;;5037650;28;20003;-85
2024/03/28 04:28:51;;;;;;;;;;;6.30;1.00;;;;;;5045423;28;20291;-84
2024/03/28 04:31:17;;;;;;;;;;;6.30;1.00;;;;;;5037270;28;19917;-85
2024/03/28 04:33:42;;;;;;;;;;;6.30;1.00;;;;;;5036879;28;19940;-84
2024/03/28 04:36:08;;;;;;;;;;;6.30;1.00;;;;;;5036554;28;19936;-84
2024/03/28 04:38:35;;;;;;;;;;;6.30;1.00;;;;;;5034425;28;19921;-84
2024/03/28 04:41:00;;;;;;;;;;;6.30;1.00;;;;;;5033805;28;19931;-83
2024/03/28 04:43:26;;;;;;;;;;;6.30;1.00;;;;;;5037103;28;19913;-87
2024/03/28 04:45:52;;;;;;;;;;;6.30;1.00;;;;;;5038878;28;19921;-83
2024/03/28 04:48:17;;;;;;;;;;;6.40;1.00;;;;;;5039113;28;20394;-85
2024/03/28 04:50:43;;;;;;;;;;;6.40;1.00;;;;;;5040329;28;19956;-83
2024/03/28 04:53:08;;;;;;;;;;;6.50;1.00;;;;;;5039029;28;19913;-84
2024/03/28 04:55:34;;;;;;;;;;;6.50;1.00;;;;;;5035170;28;19913;-84
2024/03/28 04:57:59;;;;;;;;;;;6.50;1.00;;;;;;5035892;28;19913;-84
2024/03/28 05:00:25;;;;;;;;;;;6.60;1.00;;;;;;5032968;28;19913;-83
2024/03/28 05:02:50;;;;;;;;;;;6.60;1.00;;;;;;5033726;28;19917;-83
2024/03/28 05:05:17;;;;;;;;;;;6.60;1.00;;;;;;5048814;28;19917;-82
2024/03/28 05:07:42;;;;;;;;;;;6.60;1.00;;;;;;5033756;28;20315;-84
2024/03/28 05:10:08;;;;;;;;;;;6.70;1.00;;;;;;5035016;28;19975;-82
2024/03/28 05:12:34;;;;;;;;;;;6.70;1.00;;;;;;5030530;28;19960;-83
2024/03/28 05:15:01;;;;;;;;;;;6.70;1.00;;;;;;5036068;28;19913;-84
2024/03/28 05:17:26;;;;;;;;;;;6.70;1.00;;;;;;5029850;28;19913;-81
2024/03/28 05:19:52;;;;;;;;;;;6.70;1.00;;;;;;5029502;28;19913;-84
2024/03/28 05:22:18;;;;;;;;;;;6.70;1.00;;;;;;5046697;28;19921;-85
2024/03/28 05:24:43;;;;;;;;;;;6.80;1.00;;;;;;5047859;28;19928;-83
2024/03/28 05:27:12;;;;;;;;;;;6.70;1.00;;;;;;5031746;28;20324;-83
2024/03/28 05:29:37;;;;;;;;;;;6.70;1.00;;;;;;5045086;28;19956;-81
2024/03/28 05:32:03;;;;;;;;;;;6.80;1.00;;;;;;5048387;28;20267;-82
2024/03/28 05:34:29;;;;;;;;;;;6.80;1.00;;;;;;5024946;28;19910;-82
2024/03/28 05:36:54;;;;;;;;;;;6.80;1.00;;;;;;5032784;28;19937;-82
2024/03/28 05:39:19;;;;;;;;;;;6.90;1.00;;;;;;5023054;28;19935;-82
2024/03/28 05:41:45;;;;;;;;;;;6.90;1.00;;;;;;5022987;28;19952;-82
2024/03/28 05:44:10;;;;;;;;;;;6.90;1.00;;;;;;5024002;28;20379;-83
2024/03/28 05:46:36;;;;;;;;;;;7.00;1.00;;;;;;5016814;28;20012;-84
2024/03/28 05:49:01;;;;;;;;;;;7.70;1.00;;;;;;5027132;28;19909;-83
2024/03/28 05:51:27;;;;;;;;;;;8.30;1.00;;;;;;5026166;28;20367;-82
2024/03/28 05:53:52;;;;;;;;;;;8.80;1.00;;;;;;5030722;28;20331;-85
2024/03/28 05:56:18;;;;;;;;;;;9.20;99.90;;;;;;5018929;28;19916;-86
2024/03/28 05:58:47;;;;;;;;;;;10.50;99.90;;;;;;5036271;28;19967;-83
2024/03/28 06:01:13;;;;;;;;;;;11.10;99.90;;;;;;5027047;28;19957;-83
2024/03/28 06:03:38;;;;;;;;;;;11.20;68.80;;;;;;5027119;28;19910;-84
2024/03/28 06:06:04;;;;;;;;;;;10.90;17.30;;;;;;5028283;28;19920;-81
2024/03/28 06:08:30;;;;;;;;;;;10.50;88.60;;;;;;5024535;28;19913;-83
2024/03/28 06:10:55;;;;;;;;;;;10.10;99.90;;;;;;5029525;28;19928;-84
2024/03/28 06:13:21;;;;;;;;;;;9.80;99.90;;;;;;5027037;28;19914;-84
2024/03/28 06:15:47;;;;;;;;;;;10.30;1.00;;;;;;5034904;28;19914;-84
2024/03/28 06:18:12;;;;;;;;;;;11.90;81.40;;;;;;5021138;28;19936;-86
2024/03/28 06:20:39;;;;;;;;;;;11.70;1.00;;;;;;5016661;28;19965;-84
2024/03/28 06:23:05;;;;;;;;;;;11.20;1.00;;;;;;5016354;28;19910;-85
2024/03/28 06:25:30;;;;;;;;;;;10.80;1.00;;;;;;5016623;28;19935;-83
2024/03/28 06:27:56;;;;;;;;;;;10.60;1.00;;;;;;5024997;28;20208;-83
2024/03/28 06:30:26;;;;;;;;;;;10.60;68.00;;;;;;5028776;28;19909;-85
2024/03/28 06:32:52;;;;;;;;;;;12.70;14.90;;;;;;5027261;28;19944;-84
2024/03/28 06:35:17;;;;;;;;;;;14.10;1.00;;;;;;5019775;28;19913;-85
2024/03/28 06:37:43;;;;;;;;;;;13.60;99.90;;;;;;5029340;28;19948;-84
2024/03/28 06:40:09;;;;;;;;;;;13.00;99.90;;;;;;5031965;28;19959;-83
2024/03/28 06:42:35;;;;;;;;;;;12.30;1.00;;;;;;5023226;28;20389;-83
2024/03/28 06:45:01;;;;;;;;;;;11.70;1.00;;;;;;5032096;28;19917;-84
2024/03/28 06:47:26;;;;;;;;;;;11.20;1.00;;;;;;5034961;28;19917;-82
2024/03/28 06:49:51;;;;;;;;;;;10.70;1.00;;;;;;5017851;28;19909;-80
2024/03/28 06:52:17;;;;;;;;;;;10.30;11.10;;;;;;5029023;28;19913;-82
2024/03/28 06:54:42;;;;;;;;;;;10.10;99.90;;;;;;5022317;28;19957;-83
2024/03/28 06:57:08;;;;;;;;;;;9.90;99.90;;;;;;5027320;28;20268;-82
2024/03/28 06:59:33;;;;;;;;;;;9.80;1.00;;;;;;5059131;28;20569;-82
2024/03/28 07:04:27;;;;;;;;;;;9.60;99.90;;;;;;5070197;28;19935;-83
2024/03/28 07:06:52;;;;;;;;;;;9.70;99.90;;;;;;5063390;28;19909;-82
2024/03/28 07:09:18;;;;;;;;;;;9.70;99.90;;;;;;5059717;28;19913;-81
2024/03/28 07:11:45;;;;;;;;;;;9.70;26.90;;;;;;5065743;28;19971;-83
2024/03/28 07:14:12;;;;;;;;;;;9.60;99.90;;;;;;5065052;28;19912;-82
2024/03/28 07:16:38;;;;;;;;;;;9.60;1.00;;;;;;5062471;28;20007;-81
2024/03/28 07:19:03;;;;;;;;;;;9.60;99.90;;;;;;5076370;28;19959;-82
2024/03/28 07:21:29;;;;;;;;;;;9.50;99.90;;;;;;5054271;28;19919;-83
2024/03/28 07:23:54;;;;;;;;;;;9.40;99.90;;;;;;5058174;28;19946;-81
2024/03/28 07:26:21;;;;;;;;;;;9.30;1.00;;;;;;5059139;28;19909;-81
2024/03/28 07:28:46;;;;;;;;;;;9.20;99.90;;;;;;5063341;28;19967;-82
2024/03/28 07:31:12;;;;;;;;;;;9.10;1.00;;;;;;5056575;28;20366;-83
2024/03/28 07:33:45;;;;;;;;;;;9.00;99.90;;;;;;5040987;28;19919;-81
2024/03/28 07:36:13;;;;;;;;;;;8.90;99.90;;;;;;5055652;28;20000;-83
2024/03/28 07:38:39;;;;;;;;;;;8.80;1.00;;;;;;5060730;28;19916;-83
2024/03/28 07:41:04;;;;;;;;;;;8.80;1.00;;;;;;5066440;28;19909;-83
2024/03/28 07:43:30;;;;;;;;;;;8.70;1.00;;;;;;5070199;28;20402;-82
2024/03/28 07:46:03;;;;;;;;;;;8.70;1.00;;;;;;5065964;28;19917;-83
2024/03/28 07:48:28;;;;;;;;;;;8.70;1.00;;;;;;5062729;28;19923;-83
2024/03/28 07:50:57;;;;;;;;;;;8.70;1.00;;;;;;5064754;28;19917;-83
2024/03/28 07:53:23;;;;;;;;;;;8.70;1.00;;;;;;5056390;28;19932;-82
2024/03/28 07:55:48;;;;;;;;;;;8.70;1.00;;;;;;5055367;28;20072;-82
2024/03/28 07:58:14;;;;;;;;;;;8.70;1.00;;;;;;5066362;28;20298;-82
2024/03/28 08:00:39;;;;;;;;;;;8.70;1.00;;;;;;5054418;28;19913;-83
2024/03/28 08:03:05;;;;;;;;;;;8.70;1.00;;;;;;5064518;28;19924;-83
2024/03/28 08:05:30;;;;;;;;;;;8.70;1.00;;;;;;5066739;28;20777;-82
2024/03/28 08:07:56;;;;;;;;;;;8.80;1.00;;;;;;5063302;28;19913;-83
2024/03/28 08:10:21;;;;;;;;;;;8.80;1.00;;;;;;5056645;28;19921;-81
2024/03/28 08:12:47;;;;;;;;;;;8.80;1.00;;;;;;5065937;28;20366;-83
2024/03/28 08:15:14;;;;;;;;;;;8.80;1.00;;;;;;5067333;28;19919;-82
2024/03/28 08:17:41;;;;;;;;;;;8.90;1.00;;;;;;5063364;28;19935;-84
2024/03/28 08:20:15;;;;;;;;;;;8.90;1.00;;;;;;5066034;28;19964;-82
2024/03/28 08:22:41;;;;;;;;;;;8.90;1.00;;;;;;5048791;28;19967;-83
2024/03/28 08:25:06;;;;;;;;;;;9.00;1.00;;;;;;5059964;28;20318;-82
2024/03/28 08:27:32;;;;;;;;;;;9.00;99.90;;;;;;5057343;28;19913;-82
2024/03/28 08:29:57;;;;;;;;;;;9.00;99.90;;;;;;5063364;28;19920;-81
2024/03/28 08:32:23;;;;;;;;;;;9.10;99.90;;;;;;5057491;28;19974;-82
2024/03/28 08:34:48;;;;;;;;;;;9.10;99.90;;;;;;5050873;28;20421;-82
2024/03/28 08:37:14;;;;;;;;;;;9.10;99.90;;;;;;5060276;28;19981;-81
2024/03/28 08:39:39;;;;;;;;;;;9.10;99.90;;;;;;5057910;28;19959;-82
2024/03/28 08:42:05;;;;;;;;;;;9.20;99.90;;;;;;5057693;28;20283;-82
2024/03/28 08:44:32;;;;;;;;;;;9.20;99.90;;;;;;5061703;28;19913;-80
2024/03/28 08:46:58;;;;;;;;;;;9.20;99.90;;;;;;5054793;28;19920;-82
2024/03/28 08:49:24;;;;;;;;;;;9.30;99.90;;;;;;5060769;28;20282;-81
2024/03/28 08:51:52;;;;;;;;;;;9.40;99.90;;;;;;5051252;28;21485;-81
2024/03/28 08:54:18;;;;;;;;;;;9.50;99.90;;;;;;5055972;28;19955;-82
2024/03/28 08:56:44;;;;;;;;;;;9.60;39.30;;;;;;5062384;28;19971;-82
2024/03/28 08:59:11;;;;;;;;;;;9.70;1.00;;;;;;5062836;28;19913;-81
2024/03/28 09:01:36;;;;;;;;;;;9.90;1.00;;;;;;5070093;28;19912;-82
2024/03/28 09:04:02;;;;;;;;;;;10.00;62.80;;;;;;5062393;28;20303;-83
2024/03/28 09:06:27;;;;;;;;;;;10.00;99.90;;;;;;5061978;28;20000;-83
2024/03/28 09:08:52;;;;;;;;;;;10.10;1.00;;;;;;5063897;28;19931;-81
2024/03/28 09:11:18;;;;;;;;;;;10.10;99.90;;;;;;5067347;28;19947;-81
2024/03/28 09:13:44;;;;;;;;;;;10.10;99.90;;;;;;5063188;28;19944;-82
2024/03/28 09:16:09;;;;;;;;;;;10.20;99.90;;;;;;5063032;28;19908;-80
2024/03/28 09:18:35;;;;;;;;;;;10.30;99.90;;;;;;5054808;28;19916;-82
2024/03/28 09:21:01;;;;;;;;;;;10.50;1.00;;;;;;5059400;28;19921;-82
2024/03/28 09:23:27;;;;;;;;;;;10.60;1.00;;;;;;5051318;28;19912;-81
2024/03/28 09:25:52;;;;;;;;;;;10.70;99.90;;;;;;5058478;28;19962;-83
2024/03/28 09:28:18;;;;;;;;;;;10.90;1.00;;;;;;5051925;28;19940;-80
2024/03/28 09:30:44;;;;;;;;;;;11.00;1.00;;;;;;5058937;28;19967;-80
2024/03/28 09:33:10;;;;;;;;;;;11.30;99.90;;;;;;5060981;28;19941;-79
2024/03/28 09:35:35;;;;;;;;;;;11.70;99.90;;;;;;5062248;28;20298;-80
2024/03/28 09:38:01;;;;;;;;;;;11.90;99.90;;;;;;5051595;28;19916;-80
2024/03/28 09:40:28;;;;;;;;;;;12.00;99.90;;;;;;5062998;28;20412;-81
2024/03/28 09:42:54;;;;;;;;;;;11.90;99.90;;;;;;5060324;28;19948;-80
2024/03/28 09:45:20;;;;;;;;;;;11.70;1.00;;;;;;5053615;28;19909;-80
2024/03/28 09:47:46;;;;;;;;;;;11.50;99.90;;;;;;5052372;28;19944;-79
2024/03/28 09:50:16;;;;;;;;;;;11.30;1.00;;;;;;5049833;28;19913;-80
2024/03/28 09:52:42;;;;;;;;;;;11.20;99.90;;;;;;5047805;28;19917;-78
2024/03/28 09:55:08;;;;;;;;;;;11.10;1.00;;;;;;5054408;28;19913;-79
2024/03/28 09:57:34;;;;;;;;;;;10.90;1.00;;;;;;5053815;28;19908;-81
2024/03/28 10:00:00;;;;;;;;;;;10.80;1.00;;;;;;5049433;28;19920;-80
2024/03/28 10:02:37;;;;;;;;;;;10.70;1.00;;;;;;5054826;28;19912;-81
2024/03/28 10:05:03;;;;;;;;;;;10.60;1.00;;;;;;5055985;28;20100;-80
2024/03/28 10:07:30;;;;;;;;;;;10.50;99.90;;;;;;5064904;28;19913;-80
2024/03/28 10:09:56;;;;;;;;;;;10.40;1.00;;;;;;5056301;28;20011;-78
2024/03/28 10:12:22;;;;;;;;;;;10.40;64.60;;;;;;5062513;28;19921;-81
2024/03/28 10:14:51;;;;;;;;;;;10.40;32.50;;;;;;5064340;28;19916;-81
2024/03/28 10:17:17;;;;;;;;;;;10.60;33.40;;;;;;5050848;28;19913;-80
2024/03/28 10:19:43;;;;;;;;;;;10.80;1.00;;;;;;5054132;28;19915;-81
2024/03/28 10:22:10;;;;;;;;;;;11.10;1.00;;;;;;5060999;28;19917;-82
2024/03/28 10:24:36;;;;;;;;;;;11.50;99.90;;;;;;5065203;28;19909;-82
2024/03/28 10:27:12;;;;;;;;;;;11.70;99.90;;;;;;5063851;28;19923;-81
2024/03/28 10:29:37;;;;;;;;;;;11.80;99.90;;;;;;5058649;28;20271;-80
2024/03/28 10:32:04;;;;;;;;;;;12.10;1.00;;;;;;5062863;28;19917;-80
2024/03/28 10:34:30;;;;;;;;;;;12.80;1.00;;;;;;5058336;28;19960;-81
2024/03/28 10:37:02;;;;;;;;;;;13.60;1.00;;;;;;5062580;28;19926;-82
2024/03/28 10:39:28;;;;;;;;;;;14.10;99.90;;;;;;5062723;28;20023;-81
2024/03/28 10:41:53;;;;;;;;;;;14.50;99.90;;;;;;5062420;28;19959;-82
2024/03/28 10:44:19;;;;;;;;;;;14.50;99.90;;;;;;5062657;28;19912;-80
2024/03/28 10:46:45;;;;;;;;;;;14.40;99.90;;;;;;5062589;28;19912;-80
2024/03/28 10:49:11;;;;;;;;;;;14.60;99.90;;;;;;5062129;28;19916;-81
2024/03/28 10:51:42;;;;;;;;;;;14.80;99.90;;;;;;5050704;28;19917;-79
2024/03/28 10:54:10;;;;;;;;;;;15.30;99.90;;;;;;5059268;28;20029;-81
2024/03/28 10:56:36;;;;;;;;;;;15.90;99.90;;;;;;5065827;28;19976;-81
2024/03/28 10:59:02;;;;;;;;;;;17.30;99.90;;;;;;5066792;28;19924;-82
2024/03/28 11:01:29;;;;;;;;;;;17.20;99.90;;;;;;5071748;28;19943;-81
2024/03/28 11:03:55;;;;;;;;;;;16.70;99.90;;;;;;5067524;28;19924;-82
2024/03/28 11:06:21;;;;;;;;;;;16.10;99.90;;;;;;5065734;28;19924;-81
2024/03/28 11:08:47;;;;;;;;;;;15.80;99.90;;;;;;5054661;28;19913;-81
2024/03/28 11:11:13;;;;;;;;;;;16.10;99.90;;;;;;5069814;28;19925;-81
2024/03/28 11:13:39;;;;;;;;;;;15.90;99.90;;;;;;5062934;28;20003;-82
2024/03/28 11:16:05;;;;;;;;;;;18.00;99.90;;;;;;5061106;28;19956;-81
2024/03/28 11:18:35;;;;;;;;;;;18.80;99.90;;;;;;5059374;28;19923;-82
2024/03/28 11:21:02;;;;;;;;;;;18.50;99.90;;;;;;5055652;28;19928;-80
2024/03/28 11:23:28;;;;;;;;;;;19.90;99.90;;;;;;5061313;28;19909;-82
2024/03/28 11:26:03;;;;;;;;;;;20.10;99.90;;;;;;5060812;28;19999;-83
2024/03/28 11:28:30;;;;;;;;;;;19.30;99.90;;;;;;5062315;28;20017;-80
2024/03/28 11:30:56;;;;;;;;;;;18.40;99.90;;;;;;5059227;28;19959;-82
2024/03/28 11:33:29;;;;;;;;;;;18.70;99.90;;;;;;5061931;28;20045;-83
2024/03/28 11:36:01;;;;;;;;;;;20.10;99.90;;;;;;5064017;28;19908;-82
2024/03/28 11:38:27;;;;;;;;;;;19.90;99.90;;;;;;5063232;28;19959;-81
2024/03/28 11:40:53;;;;;;;;;;;19.00;99.90;;;;;;5061318;28;19913;-81
2024/03/28 11:43:19;;;;;;;;;;;19.00;99.90;;;;;;5062567;28;20282;-83
2024/03/28 11:45:55;;;;;;;;;;;19.50;99.90;;;;;;5068366;28;20290;-83
2024/03/28 11:48:27;;;;;;;;;;;19.50;99.90;;;;;;5060646;28;20393;-82
2024/03/28 11:50:54;;;;;;;;;;;19.10;99.90;;;;;;5064804;28;19908;-83
2024/03/28 11:53:19;;;;;;;;;;;19.70;99.90;;;;;;5065767;28;19909;-80
2024/03/28 11:55:48;;;;;;;;;;;21.00;99.90;;;;;;5065824;28;19916;-83
2024/03/28 11:58:14;;;;;;;;;;;22.10;99.90;;;;;;5062917;28;19917;-83
2024/03/28 12:00:39;;;;;;;;;;;23.10;99.90;;;;;;5051492;28;20004;-82
2024/03/28 12:03:05;;;;;;;;;;;24.00;99.90;;;;;;4974086;28;1848814;-83
2024/03/28 12:05:31;;;;;;;;;;;24.70;99.90;;;;;;5067137;28;19917;-83
2024/03/28 12:07:56;;;;;;;;;;;25.10;99.90;;;;;;5064959;28;19936;-82
2024/03/28 12:10:22;;;;;;;;;;;23.70;99.90;;;;;;5063681;28;19909;-83
2024/03/28 12:12:48;;;;;;;;;;;23.40;99.90;;;;;;5060294;28;19917;-83
2024/03/28 12:15:16;;;;;;;;;;;22.50;99.90;;;;;;5052115;28;20270;-81
2024/03/28 12:17:42;;;;;;;;;;;21.40;99.90;;;;;;5064054;28;19924;-81
2024/03/28 12:20:11;;;;;;;;;;;20.10;99.90;;;;;;5049709;28;20341;-82
2024/03/28 12:22:37;;;;;;;;;;;18.90;99.90;;;;;;5062657;28;19971;-82
2024/03/28 12:25:08;;;;;;;;;;;17.70;99.90;;;;;;5066181;28;20569;-81
2024/03/28 12:27:33;;;;;;;;;;;16.80;99.90;;;;;;5061054;28;19913;-82
2024/03/28 12:30:13;;;;;;;;;;;15.90;99.90;;;;;;5062502;28;19931;-82
2024/03/28 12:32:39;;;;;;;;;;;14.80;99.90;;;;;;5062745;28;19913;-82
2024/03/28 12:35:05;;;;;;;;;;;13.90;99.90;;;;;;5062086;28;19917;-81
2024/03/28 12:37:32;;;;;;;;;;;13.10;99.90;;;;;;5061547;28;19959;-81
2024/03/28 12:40:09;;;;;;;;;;;12.50;99.90;;;;;;5050572;28;19935;-81
2024/03/28 12:42:36;;;;;;;;;;;12.10;99.90;;;;;;5066264;28;19913;-81
2024/03/28 12:45:10;;;;;;;;;;;12.20;99.90;;;;;;5061093;28;19913;-80
2024/03/28 12:47:36;;;;;;;;;;;12.70;99.90;;;;;;5060952;28;19921;-82
2024/03/28 12:50:01;;;;;;;;;;;13.70;99.90;;;;;;5051855;28;19909;-81
2024/03/28 12:52:27;;;;;;;;;;;14.80;99.90;;;;;;5053195;28;20353;-82
2024/03/28 12:54:52;;;;;;;;;;;16.30;99.90;;;;;;5061665;28;19909;-81
2024/03/28 12:57:17;;;;;;;;;;;17.50;99.90;;;;;;5052083;28;20007;-82
2024/03/28 12:59:43;;;;;;;;;;;18.40;99.90;;;;;;5060901;28;19919;-81
2024/03/28 13:02:08;;;;;;;;;;;19.00;99.90;;;;;;5062739;28;19908;-82
2024/03/28 13:04:34;;;;;;;;;;;19.50;99.90;;;;;;5088019;22;19924;-84
2024/03/28 13:07:03;;;;;;;;;;;19.90;99.90;;;;;;5070920;28;20382;-84
2024/03/28 13:09:29;;;;;;;;;;;20.10;99.90;;;;;;5073471;28;19926;-84
2024/03/28 13:11:58;;;;;;;;;;;20.30;99.90;;;;;;5072840;28;19917;-85
2024/03/28 13:14:23;;;;;;;;;;;20.50;99.90;;;;;;5057998;28;19920;-84
2024/03/28 13:16:49;;;;;;;;;;;20.50;99.90;;;;;;5062637;28;19909;-85
2024/03/28 13:19:14;;;;;;;;;;;20.70;99.90;;;;;;5058965;28;20008;-86
2024/03/28 13:21:40;;;;;;;;;;;20.70;99.90;;;;;;5050162;28;19908;-84
2024/03/28 13:24:05;;;;;;;;;;;20.80;99.90;;;;;;5059865;28;20430;-85
2024/03/28 13:26:31;;;;;;;;;;;21.00;99.90;;;;;;5052051;28;19984;-85
2024/03/28 13:28:56;;;;;;;;;;;21.20;99.90;;;;;;5052240;28;19912;-84
2024/03/28 13:31:22;;;;;;;;;;;20.90;99.90;;;;;;5054926;28;19920;-84
2024/03/28 13:33:48;;;;;;;;;;;20.70;99.90;;;;;;5065856;28;19928;-86
2024/03/28 13:36:13;;;;;;;;;;;20.70;99.90;;;;;;5045838;28;20283;-85
2024/03/28 13:38:39;;;;;;;;;;;20.60;99.90;;;;;;5043944;28;19916;-84
2024/03/28 13:41:04;;;;;;;;;;;20.60;99.90;;;;;;5049017;28;19919;-85
2024/03/28 13:43:30;;;;;;;;;;;20.60;99.90;;;;;;5047685;28;19931;-85
2024/03/28 13:45:56;;;;;;;;;;;20.40;99.90;;;;;;5046803;28;20042;-84
2024/03/28 13:48:24;;;;;;;;;;;20.10;99.90;;;;;;5049421;28;19920;-85
2024/03/28 13:50:50;;;;;;;;;;;19.70;99.90;;;;;;5042263;28;19967;-83
2024/03/28 13:53:15;;;;;;;;;;;19.10;99.90;;;;;;5047804;28;19952;-84
2024/03/28 13:55:42;;;;;;;;;;;18.40;99.90;;;;;;5046268;28;19916;-85
2024/03/28 13:58:09;;;;;;;;;;;17.90;99.90;;;;;;5039834;28;20070;-85
2024/03/28 14:00:35;;;;;;;;;;;17.60;99.90;;;;;;5039327;28;20406;-84
2024/03/28 14:03:02;;;;;;;;;;;17.30;99.90;;;;;;5041791;28;19963;-84
2024/03/28 14:05:27;;;;;;;;;;;17.00;99.90;;;;;;5038842;28;19917;-84
2024/03/28 14:07:53;;;;;;;;;;;16.90;99.90;;;;;;5048184;28;19913;-84
2024/03/28 14:10:18;;;;;;;;;;;16.90;99.90;;;;;;5049787;28;20011;-86
2024/03/28 14:12:44;;;;;;;;;;;17.00;99.90;;;;;;5046548;28;20007;-82
2024/03/28 14:15:09;;;;;;;;;;;17.00;99.90;;;;;;5048713;28;19913;-86
2024/03/28 14:17:35;;;;;;;;;;;16.80;99.90;;;;;;5046783;28;20000;-85
2024/03/28 14:20:00;;;;;;;;;;;16.70;99.90;;;;;;5044404;28;20256;-84
2024/03/28 14:22:26;;;;;;;;;;;16.50;99.90;;;;;;5034636;28;19917;-84
2024/03/28 14:24:52;;;;;;;;;;;16.20;99.90;;;;;;5033184;28;22855;-84
2024/03/28 14:27:17;;;;;;;;;;;16.00;99.90;;;;;;5032749;28;19921;-84
2024/03/28 14:29:43;;;;;;;;;;;15.90;99.90;;;;;;5041514;28;19921;-84
2024/03/28 14:32:08;;;;;;;;;;;15.80;99.90;;;;;;5035331;28;19920;-83